createdAt,value
2017-01-22T00:02:40.330Z,92.494
2017-01-22T00:05:33.347Z,92.398
2017-01-22T00:08:26.314Z,92.347
2017-01-22T00:11:21.020Z,92.371
2017-01-22T00:14:14.138Z,92.361
2017-01-22T00:17:05.421Z,92.404
2017-01-22T00:20:00.299Z,92.449
2017-01-22T00:25:45.612Z,92.431
2017-01-22T00:28:40.429Z,92.561
2017-01-22T00:31:34.439Z,92.605
2017-01-22T00:34:24.839Z,92.479
2017-01-22T00:37:18.163Z,92.699
2017-01-22T00:40:13.892Z,92.646
2017-01-22T00:43:04.263Z,92.810
2017-01-22T00:45:57.316Z,92.726
2017-01-22T00:48:50.400Z,92.848
2017-01-22T00:51:43.344Z,92.950
2017-01-22T00:54:36.410Z,93.019
2017-01-22T00:57:29.436Z,92.933
2017-01-22T01:00:22.494Z,93.194
2017-01-22T01:03:15.497Z,93.032
2017-01-22T01:06:08.551Z,93.156
2017-01-22T01:09:03.162Z,93.086
2017-01-22T01:11:54.578Z,93.316
2017-01-22T01:14:49.238Z,93.593
2017-01-22T01:17:42.338Z,93.812
2017-01-22T01:20:33.580Z,94.180
2017-01-22T01:23:28.287Z,94.444
2017-01-22T01:26:19.789Z,94.403
2017-01-22T01:29:15.460Z,94.635
2017-01-22T01:32:05.856Z,94.423
2017-01-22T01:34:58.790Z,94.555
2017-01-22T01:37:53.581Z,93.687
2017-01-22T01:40:44.900Z,93.863
2017-01-22T01:43:38.696Z,94.243
2017-01-22T01:46:30.675Z,94.137
2017-01-22T01:49:25.292Z,93.967
2017-01-22T01:52:16.651Z,93.921
2017-01-22T01:55:10.286Z,94.033
2017-01-22T01:58:04.432Z,94.094
2017-01-22T02:00:57.276Z,94.079
2017-01-22T02:03:48.618Z,93.908
2017-01-22T02:06:41.548Z,93.369
2017-01-22T02:09:35.880Z,93.257
2017-01-22T02:12:29.905Z,93.299
2017-01-22T02:15:21.650Z,93.307
2017-01-22T02:18:14.907Z,93.351
2017-01-22T02:21:08.346Z,93.333
2017-01-22T02:24:03.389Z,93.223
2017-01-22T02:26:54.957Z,93.397
2017-01-22T02:29:48.296Z,93.341
2017-01-22T02:32:43.322Z,93.302
2017-01-22T02:35:35.040Z,93.421
2017-01-22T02:38:28.484Z,93.452
2017-01-22T02:41:21.817Z,93.463
2017-01-22T02:44:16.776Z,93.643
2017-01-22T02:47:08.912Z,93.853
2017-01-22T02:50:00.948Z,93.680
2017-01-22T02:52:55.978Z,94.012
2017-01-22T02:55:49.161Z,94.105
2017-01-22T02:58:42.516Z,94.296
2017-01-22T03:01:35.393Z,94.325
2017-01-22T03:04:26.572Z,94.773
2017-01-22T03:07:19.571Z,94.629
2017-01-22T03:10:14.149Z,94.597
2017-01-22T03:13:05.399Z,94.678
2017-01-22T03:16:00.091Z,94.982
2017-01-22T03:18:51.322Z,95.526
2017-01-22T03:21:45.945Z,95.711
2017-01-22T03:24:37.209Z,95.750
2017-01-22T03:27:30.259Z,96.059
2017-01-22T03:30:23.136Z,95.983
2017-01-22T03:33:16.037Z,96.184
2017-01-22T03:36:08.961Z,95.943
2017-01-22T03:39:03.467Z,95.866
2017-01-22T03:41:54.687Z,95.992
2017-01-22T03:44:49.410Z,96.148
2017-01-22T03:47:42.338Z,96.736
2017-01-22T03:50:33.460Z,96.646
2017-01-22T03:53:26.425Z,96.476
2017-01-22T03:56:20.994Z,96.761
2017-01-22T03:59:13.973Z,96.810
2017-01-22T04:02:05.196Z,96.687
2017-01-22T04:04:58.218Z,96.658
2017-01-22T04:07:52.069Z,96.358
2017-01-22T04:10:45.591Z,96.115
2017-01-22T04:13:38.532Z,96.487
2017-01-22T04:16:31.397Z,96.770
2017-01-22T04:19:22.546Z,96.530
2017-01-22T04:22:15.416Z,96.458
2017-01-22T04:25:08.134Z,96.638
2017-01-22T04:28:02.710Z,96.754
2017-01-22T04:30:54.056Z,96.392
2017-01-22T04:33:48.645Z,96.239
2017-01-22T04:36:42.421Z,96.105
2017-01-22T04:42:26.258Z,96.221
2017-01-22T04:45:20.898Z,95.905
2017-01-22T04:48:13.721Z,95.933
2017-01-22T04:51:04.916Z,95.997
2017-01-22T04:53:57.766Z,96.015
2017-01-22T04:56:50.773Z,96.281
2017-01-22T04:59:43.983Z,96.417
2017-01-22T05:02:36.925Z,96.288
2017-01-22T05:05:29.856Z,96.421
2017-01-22T05:08:24.538Z,96.469
2017-01-22T05:11:15.784Z,96.324
2017-01-22T05:14:10.423Z,96.466
2017-01-22T05:17:04.196Z,96.471
2017-01-22T05:19:54.452Z,96.775
2017-01-22T05:22:47.302Z,96.583
2017-01-22T05:25:40.232Z,96.642
2017-01-22T05:28:34.861Z,97.020
2017-01-22T05:31:27.912Z,96.863
2017-01-22T05:34:19.002Z,97.162
2017-01-22T05:37:13.654Z,96.727
2017-01-22T05:40:06.699Z,96.505
2017-01-22T05:42:59.458Z,96.471
2017-01-22T05:45:50.709Z,96.702
2017-01-22T05:48:45.279Z,96.838
2017-01-22T05:51:38.126Z,96.624
2017-01-22T05:54:31.130Z,96.561
2017-01-22T06:00:16.756Z,96.460
2017-01-22T06:03:08.094Z,96.813
2017-01-22T06:06:00.972Z,96.964
2017-01-22T06:08:53.886Z,96.647
2017-01-22T06:11:48.497Z,96.875
2017-01-22T06:14:40.595Z,97.111
2017-01-22T06:17:34.198Z,96.920
2017-01-22T06:20:26.898Z,97.320
2017-01-22T06:23:18.068Z,97.526
2017-01-22T06:26:12.782Z,97.500
2017-01-22T06:31:56.597Z,97.343
2017-01-22T06:34:49.393Z,97.297
2017-01-22T06:37:42.221Z,97.491
2017-01-22T06:40:34.998Z,97.852
2017-01-22T06:43:27.958Z,98.089
2017-01-22T06:46:22.534Z,97.972
2017-01-22T06:52:08.417Z,97.778
2017-01-22T06:55:01.989Z,97.935
2017-01-22T06:57:52.943Z,97.754
2017-01-22T07:00:45.721Z,97.863
2017-01-22T07:03:38.644Z,98.165
2017-01-22T07:06:33.158Z,98.176
2017-01-22T07:09:24.230Z,98.227
2017-01-22T07:12:18.913Z,98.494
2017-01-22T07:15:10.074Z,98.495
2017-01-22T07:18:03.775Z,98.885
2017-01-22T07:20:57.365Z,98.800
2017-01-22T07:23:50.248Z,99.103
2017-01-22T07:26:41.365Z,98.972
2017-01-22T07:29:34.471Z,98.655
2017-01-22T07:32:27.287Z,98.716
2017-01-22T07:35:21.850Z,98.900
2017-01-22T07:38:13.087Z,99.013
2017-01-22T07:41:07.610Z,99.032
2017-01-22T07:43:58.723Z,98.857
2017-01-22T07:46:51.701Z,98.767
2017-01-22T07:49:46.371Z,98.394
2017-01-22T07:52:39.151Z,98.291
2017-01-22T07:55:30.388Z,98.209
2017-01-22T07:58:23.401Z,98.009
2017-01-22T08:01:16.361Z,98.089
2017-01-22T08:04:11.209Z,97.742
2017-01-22T08:07:02.468Z,97.700
2017-01-22T08:09:55.626Z,97.675
2017-01-22T08:12:48.667Z,97.263
2017-01-22T08:15:44.308Z,97.605
2017-01-22T08:18:35.662Z,97.323
2017-01-22T08:21:29.987Z,97.145
2017-01-22T08:24:23.042Z,96.708
2017-01-22T08:27:14.598Z,96.428
2017-01-22T08:30:07.497Z,96.099
2017-01-22T08:33:00.444Z,95.216
2017-01-22T08:35:53.454Z,95.076
2017-01-22T08:38:49.232Z,93.886
2017-01-22T08:41:41.264Z,93.591
2017-01-22T08:44:32.396Z,93.835
2017-01-22T08:47:27.250Z,93.584
2017-01-22T08:50:20.408Z,92.912
2017-01-22T08:53:11.773Z,93.418
2017-01-22T08:56:04.851Z,92.874
2017-01-22T08:58:57.998Z,93.050
2017-01-22T09:01:51.169Z,92.596
2017-01-22T09:04:44.977Z,91.083
2017-01-22T09:07:38.163Z,90.064
2017-01-22T09:10:33.550Z,88.367
2017-01-22T09:13:26.340Z,87.065
2017-01-22T09:16:17.947Z,88.356
2017-01-22T09:19:11.063Z,87.702
2017-01-22T09:22:04.113Z,86.593
2017-01-22T09:24:59.126Z,86.013
2017-01-22T09:27:52.176Z,85.759
2017-01-22T09:30:44.316Z,84.119
2017-01-22T09:33:36.836Z,85.229
2017-01-22T09:36:30.094Z,83.697
2017-01-22T09:39:25.059Z,83.128
2017-01-22T09:42:16.672Z,82.047
2017-01-22T09:45:09.832Z,80.478
2017-01-22T09:48:04.810Z,80.422
2017-01-22T09:50:56.499Z,78.585
2017-01-22T09:53:49.966Z,78.318
2017-01-22T09:56:43.239Z,74.679
2017-01-22T09:59:38.328Z,74.791
2017-01-22T10:02:31.585Z,77.524
2017-01-22T10:08:16.745Z,77.742
2017-01-22T10:11:10.112Z,73.582
2017-01-22T10:14:03.415Z,74.827
2017-01-22T10:16:56.898Z,73.883
2017-01-22T10:19:50.116Z,74.474
2017-01-22T10:22:45.314Z,74.331
2017-01-22T10:28:31.116Z,77.902
2017-01-22T10:31:25.816Z,73.729
2017-01-22T10:34:17.656Z,73.051
2017-01-22T10:37:10.928Z,72.338
2017-01-22T10:40:04.160Z,72.820
2017-01-22T10:42:59.332Z,71.920
2017-01-22T10:45:51.061Z,72.432
2017-01-22T10:48:44.355Z,70.418
2017-01-22T10:51:37.727Z,72.727
2017-01-22T10:54:31.122Z,73.493
2017-01-22T10:57:26.321Z,73.013
2017-01-22T11:00:17.932Z,69.579
2017-01-22T11:03:11.208Z,73.261
2017-01-22T11:06:04.596Z,73.034
2017-01-22T11:08:57.898Z,72.942
2017-01-22T11:11:51.192Z,72.081
2017-01-22T11:14:44.518Z,74.724
2017-01-22T11:17:37.561Z,74.976
2017-01-22T11:20:30.906Z,73.953
2017-01-22T11:23:24.162Z,75.193
2017-01-22T11:26:17.502Z,76.621
2017-01-22T11:29:10.602Z,76.675
2017-01-22T11:32:03.606Z,78.226
2017-01-22T11:34:56.641Z,78.559
2017-01-22T11:37:49.760Z,79.875
2017-01-22T11:40:42.722Z,81.688
2017-01-22T11:43:35.901Z,81.494
2017-01-22T11:46:30.843Z,81.003
2017-01-22T11:49:24.020Z,81.468
2017-01-22T11:52:15.466Z,82.100
2017-01-22T11:55:10.184Z,81.944
2017-01-22T11:58:01.762Z,82.860
2017-01-22T12:00:56.345Z,81.428
2017-01-22T12:03:47.919Z,81.975
2017-01-22T12:06:40.867Z,82.854
2017-01-22T12:09:33.942Z,82.612
2017-01-22T12:12:27.113Z,83.318
2017-01-22T12:15:20.073Z,83.584
2017-01-22T12:18:13.477Z,83.489
2017-01-22T12:21:06.777Z,83.905
2017-01-22T12:24:00.000Z,83.923
2017-01-22T12:26:54.691Z,84.305
2017-01-22T12:29:46.227Z,83.752
2017-01-22T12:32:39.222Z,83.831
2017-01-22T12:35:33.521Z,83.715
2017-01-22T12:38:27.151Z,84.140
2017-01-22T12:41:18.481Z,84.158
2017-01-22T12:44:11.608Z,84.674
2017-01-22T12:47:06.495Z,84.647
2017-01-22T12:49:57.886Z,84.381
2017-01-22T12:52:52.576Z,84.746
2017-01-22T12:55:44.202Z,84.805
2017-01-22T12:58:37.209Z,84.492
2017-01-22T13:01:30.296Z,84.756
2017-01-22T13:04:23.366Z,84.315
2017-01-22T13:07:16.208Z,84.921
2017-01-22T13:10:09.127Z,84.965
2017-01-22T13:15:55.227Z,85.157
2017-01-22T13:18:49.998Z,85.186
2017-01-22T13:21:43.326Z,85.393
2017-01-22T13:24:34.763Z,85.117
2017-01-22T13:27:28.862Z,84.735
2017-01-22T13:30:22.922Z,83.953
2017-01-22T13:33:16.145Z,85.194
2017-01-22T13:36:07.299Z,84.670
2017-01-22T13:39:00.259Z,85.413
2017-01-22T13:41:55.030Z,84.901
2017-01-22T13:44:46.443Z,85.492
2017-01-22T13:47:41.205Z,84.046
2017-01-22T13:50:34.175Z,83.402
2017-01-22T13:53:27.088Z,83.905
2017-01-22T13:56:18.530Z,84.629
2017-01-22T13:59:11.603Z,84.858
2017-01-22T14:02:05.165Z,85.155
2017-01-22T14:04:57.970Z,85.660
2017-01-22T14:07:51.040Z,86.292
2017-01-22T14:10:45.727Z,86.318
2017-01-22T14:13:38.817Z,86.815
2017-01-22T14:16:30.073Z,86.823
2017-01-22T14:19:23.144Z,87.042
2017-01-22T14:22:17.838Z,87.358
2017-01-22T14:25:09.674Z,87.486
2017-01-22T14:28:02.696Z,87.654
2017-01-22T14:30:57.250Z,87.907
2017-01-22T14:33:48.609Z,88.441
2017-01-22T14:36:41.761Z,88.854
2017-01-22T14:39:34.854Z,88.905
2017-01-22T14:42:27.506Z,88.844
2017-01-22T14:45:20.419Z,89.433
2017-01-22T14:48:13.476Z,89.515
2017-01-22T14:51:06.439Z,89.529
2017-01-22T14:54:01.194Z,89.818
2017-01-22T14:56:54.121Z,90.965
2017-01-22T14:59:45.368Z,90.948
2017-01-22T15:02:40.093Z,90.659
2017-01-22T15:05:31.571Z,90.700
2017-01-22T15:08:24.279Z,90.611
2017-01-22T15:11:18.787Z,91.057
2017-01-22T15:14:10.011Z,91.659
2017-01-22T15:17:03.334Z,91.766
2017-01-22T15:19:57.029Z,91.583
2017-01-22T15:22:51.332Z,92.304
2017-01-22T15:25:44.083Z,92.979
2017-01-22T15:28:35.195Z,92.694
2017-01-22T15:31:29.656Z,93.059
2017-01-22T15:34:20.932Z,92.951
2017-01-22T15:37:13.870Z,92.395
2017-01-22T15:40:06.702Z,93.417
2017-01-22T15:43:01.192Z,93.121
2017-01-22T15:45:54.296Z,92.470
2017-01-22T15:48:47.402Z,93.410
2017-01-22T15:51:38.472Z,94.151
2017-01-22T15:54:31.296Z,93.557
2017-01-22T15:57:25.849Z,94.140
2017-01-22T16:00:17.109Z,94.219
2017-01-22T16:03:11.500Z,94.859
2017-01-22T16:06:04.381Z,94.951
2017-01-22T16:08:55.421Z,95.213
2017-01-22T16:11:48.374Z,95.316
2017-01-22T16:14:41.200Z,95.889
2017-01-22T16:17:34.108Z,95.885
2017-01-22T16:20:28.542Z,96.136
2017-01-22T16:23:19.712Z,96.287
2017-01-22T16:26:14.116Z,96.041
2017-01-22T16:29:05.369Z,96.863
2017-01-22T16:31:58.099Z,96.317
2017-01-22T16:34:52.658Z,96.805
2017-01-22T16:37:45.487Z,96.566
2017-01-22T16:40:38.366Z,95.316
2017-01-22T16:43:29.515Z,96.703
2017-01-22T16:46:24.001Z,96.984
2017-01-22T16:49:16.879Z,96.882
2017-01-22T16:52:07.880Z,96.950
2017-01-22T16:55:00.805Z,96.736
2017-01-22T16:57:54.603Z,96.302
2017-01-22T17:00:48.302Z,96.715
2017-01-22T17:03:41.015Z,96.690
2017-01-22T17:06:32.215Z,96.760
2017-01-22T17:09:25.033Z,97.104
2017-01-22T17:12:17.976Z,97.133
2017-01-22T17:15:11.467Z,96.276
2017-01-22T17:18:03.632Z,96.909
2017-01-22T17:20:58.147Z,96.910
2017-01-22T17:23:49.321Z,96.530
2017-01-22T17:26:43.818Z,97.243
2017-01-22T17:29:34.973Z,97.458
2017-01-22T17:32:27.737Z,97.261
2017-01-22T17:35:20.834Z,97.646
2017-01-22T17:38:13.557Z,96.929
2017-01-22T17:41:06.328Z,97.347
2017-01-22T17:44:00.828Z,96.357
2017-01-22T17:46:53.650Z,97.415
2017-01-22T17:49:46.549Z,96.701
2017-01-22T17:52:39.372Z,96.767
2017-01-22T17:55:32.215Z,97.334
2017-01-22T17:58:25.085Z,96.701
2017-01-22T18:01:17.960Z,97.211
2017-01-22T18:04:09.005Z,97.380
2017-01-22T18:07:01.858Z,97.490
2017-01-22T18:09:54.624Z,97.485
2017-01-22T18:12:48.014Z,97.513
2017-01-22T18:18:32.765Z,98.179
2017-01-22T18:21:25.455Z,97.886
2017-01-22T18:24:19.004Z,98.103
2017-01-22T18:27:12.739Z,97.396
2017-01-22T18:30:05.679Z,97.103
2017-01-22T18:32:56.797Z,97.825
2017-01-22T18:35:50.232Z,97.681
2017-01-22T18:38:43.339Z,97.445
2017-01-22T18:41:35.109Z,97.141
2017-01-22T18:44:27.806Z,97.027
2017-01-22T18:47:21.441Z,97.348
2017-01-22T18:50:13.227Z,97.263
2017-01-22T18:53:07.749Z,97.111
2017-01-22T18:55:58.864Z,96.983
2017-01-22T18:58:51.593Z,96.305
2017-01-22T19:01:46.000Z,97.271
2017-01-22T19:04:37.211Z,97.008
2017-01-22T19:07:30.036Z,96.726
2017-01-22T19:10:24.499Z,96.911
2017-01-22T19:13:15.436Z,97.221
2017-01-22T19:16:08.419Z,96.551
2017-01-22T19:19:02.991Z,96.709
2017-01-22T19:21:55.126Z,96.608
2017-01-22T19:24:48.516Z,96.413
2017-01-22T19:27:41.149Z,96.592
2017-01-22T19:30:32.253Z,96.863
2017-01-22T19:33:25.951Z,96.331
2017-01-22T19:36:17.751Z,97.072
2017-01-22T19:39:12.266Z,96.989
2017-01-22T19:42:03.381Z,96.731
2017-01-22T19:44:56.181Z,97.258
2017-01-22T19:47:48.874Z,96.841
2017-01-22T19:50:41.671Z,96.770
2017-01-22T19:56:27.201Z,96.892
2017-01-22T19:59:21.770Z,96.962
2017-01-22T20:02:12.722Z,96.433
2017-01-22T20:05:07.180Z,96.780
2017-01-22T20:07:59.895Z,96.948
2017-01-22T20:10:51.050Z,97.059
2017-01-22T20:13:44.536Z,97.253
2017-01-22T20:16:38.189Z,97.129
2017-01-22T20:19:29.372Z,97.106
2017-01-22T20:22:24.195Z,97.215
2017-01-22T20:25:14.848Z,97.497
2017-01-22T20:28:08.319Z,97.001
2017-01-22T20:31:00.496Z,96.966
2017-01-22T20:33:52.868Z,97.002
2017-01-22T20:36:45.744Z,97.206
2017-01-22T20:39:40.310Z,97.161
2017-01-22T20:42:32.661Z,97.221
2017-01-22T20:45:23.732Z,96.958
2017-01-22T20:48:18.173Z,97.179
2017-01-22T20:51:09.283Z,97.604
2017-01-22T20:54:01.710Z,97.678
2017-01-22T20:56:54.343Z,97.565
2017-01-22T20:59:49.739Z,97.322
2017-01-22T21:02:40.262Z,97.103
2017-01-22T21:05:34.002Z,97.147
2017-01-22T21:08:26.654Z,97.330
2017-01-22T21:11:19.443Z,97.320
2017-01-22T21:14:12.734Z,97.552
2017-01-22T21:17:05.009Z,96.944
2017-01-22T21:19:57.764Z,97.087
2017-01-22T21:22:48.729Z,97.415
2017-01-22T21:25:43.143Z,97.370
2017-01-22T21:28:34.119Z,97.625
2017-01-22T21:34:19.468Z,97.616
2017-01-22T21:37:12.155Z,97.606
2017-01-22T21:40:04.931Z,97.120
2017-01-22T21:42:57.679Z,97.171
2017-01-22T21:45:50.907Z,97.529
2017-01-22T21:48:45.244Z,97.708
2017-01-22T21:51:35.756Z,98.098
2017-01-22T21:54:29.833Z,97.261
2017-01-22T21:57:22.982Z,97.142
2017-01-22T22:00:13.975Z,98.294
2017-01-22T22:03:06.386Z,98.753
2017-01-22T22:06:00.309Z,99.113
2017-01-22T22:08:51.986Z,98.871
2017-01-22T22:11:44.399Z,99.028
2017-01-22T22:17:31.650Z,98.070
2017-01-22T22:20:22.677Z,98.461
2017-01-22T22:23:15.868Z,98.690
2017-01-22T22:26:07.900Z,98.081
2017-01-22T22:29:02.553Z,98.681
2017-01-22T22:31:53.612Z,99.041
2017-01-22T22:34:46.618Z,98.796
2017-01-22T22:40:32.812Z,98.856
2017-01-22T22:43:25.958Z,99.115
2017-01-22T22:49:09.908Z,98.848
2017-01-22T22:52:04.517Z,98.865
2017-01-22T22:54:58.316Z,98.628
2017-01-22T22:57:50.381Z,98.625
2017-01-22T23:03:32.967Z,98.287
2017-01-22T23:06:27.084Z,98.360
2017-01-22T23:09:19.945Z,98.076
2017-01-22T23:12:10.784Z,97.924
2017-01-22T23:15:05.195Z,98.156
2017-01-22T23:17:58.867Z,98.177
2017-01-22T23:20:48.814Z,98.279
2017-01-22T23:23:43.155Z,98.261
2017-01-22T23:26:36.105Z,98.621
2017-01-22T23:29:28.699Z,98.432
2017-01-22T23:32:21.538Z,98.331
2017-01-22T23:35:14.202Z,98.291
2017-01-22T23:38:07.104Z,98.287
2017-01-22T23:40:59.713Z,98.511
2017-01-22T23:43:52.454Z,98.124
2017-01-22T23:46:45.321Z,98.006
2017-01-22T23:49:36.308Z,98.128
2017-01-22T23:52:30.817Z,98.459
2017-01-22T23:55:21.905Z,98.348
2017-01-22T23:58:14.684Z,98.126
